POGODA: Poland

Lotnisko: Katowice-Pyrzowice

METAR KOD: EPKT


METAR: EPKT 311730Z 07001KT 4000 BR NSC 04/04 Q1027


BLOK
Pogoda METAR
311730Z
Dzien: 31, Godzina: 17:30 UTC.
07001KT
Wiatr z kierunku 070, o predkosci 2 km/h
4000
Widzialnosc pozioma 4000 m.
BR
zamglenia
NSC
brak istotnych chmur
04/04
Temperatura: powietrze 4°C, punkt rosy 4°C . Wilgotnosc wzgledna 100 %
Q1027
Cisnienie: 1027 hPa

Pogoda na innym lotnisku

Pogoda Gdansk-Rebiechowo WEATHER Poland  
Pogoda Katowice WEATHER Poland  
Pogoda Krakow WEATHER Poland  
Pogoda Poznan WEATHER Poland  
Pogoda Rzeszow-Jasionka WEATHER Poland  
Pogoda Szczecin WEATHER Poland  
Pogoda Warszawa-Okecie WEATHER Poland  
Pogoda Wroclaw Ii WEATHER Poland  

Pogoda w inny kraju

Strona startowa

(C) by GREGOR 2007
Ogłoszenia Towarzyskie